Time;durP1;ratioP1;P1;durP2;ratioP2;P2;SDS_P1;SDS_P2;PMS_P1;PMS_P2;Temp;Humidity;BMP_temperature;BMP_pressure;BME280_temperature;BME280_humidity;BME280_pressure;Samples;Min_cycle;Max_cycle;Signal;HPM_P1;HPM_P2
2021/03/11 00:01:01;;;;;;;62.97;34.40;;;3.40;99.90;;;;;;4960857;28;20093;-82
2021/03/11 00:03:33;;;;;;;31.60;18.77;;;3.60;99.90;;;;;;4954358;28;20047;-81
2021/03/11 00:05:59;;;;;;;25.05;17.00;;;;;;;;;;4956235;28;20012;-81
2021/03/11 00:09:03;;;;;;;32.67;18.02;;;3.40;99.90;;;;;;4959813;28;20038;-82
2021/03/11 00:11:39;;;;;;;29.00;17.55;;;3.40;99.90;;;;;;5347614;23;20043;-81
2021/03/11 00:14:11;;;;;;;28.98;17.25;;;3.40;99.90;;;;;;4939268;29;20040;-82
2021/03/11 00:16:47;;;;;;;29.25;17.48;;;3.40;99.90;;;;;;4939125;29;20038;-81
2021/03/11 00:19:36;;;;;;;30.77;17.42;;;3.40;99.90;;;;;;4936614;29;20104;-81
2021/03/11 00:22:28;;;;;;;29.63;17.92;;;3.50;99.90;;;;;;4940518;29;20020;-81
2021/03/11 00:24:57;;;;;;;32.22;17.15;;;;;;;;;;4922712;29;20038;-81
2021/03/11 00:27:39;;;;;;;34.40;20.05;;;3.40;99.90;;;;;;4947079;29;20035;-81
2021/03/11 00:30:12;;;;;;;30.23;18.00;;;4.40;99.90;;;;;;4938379;29;20022;-82
2021/03/11 00:32:58;;;;;;;29.40;18.65;;;3.40;99.90;;;;;;4920375;29;20083;-82
2021/03/11 00:35:30;;;;;;;31.73;18.15;;;2.40;99.90;;;;;;4947029;28;20063;-82
2021/03/11 00:37:59;;;;;;;31.27;18.80;;;2.20;99.90;;;;;;4920941;29;20033;-82
2021/03/11 00:40:26;;;;;;;32.42;18.73;;;;;;;;;;4941190;29;20043;-81
2021/03/11 00:42:52;;;;;;;34.25;19.45;;;;;;;;;;4941746;29;20047;-82
2021/03/11 00:45:23;;;;;;;34.38;19.05;;;3.40;99.90;;;;;;4941204;29;20035;-81
2021/03/11 00:47:55;;;;;;;31.58;19.38;;;3.40;99.90;;;;;;4941870;29;20044;-82
2021/03/11 00:50:31;;;;;;;34.03;20.45;;;3.40;99.90;;;;;;4941413;28;20547;-81
2021/03/11 00:53:03;;;;;;;35.45;19.98;;;;;;;;;;4928465;29;20015;-82
2021/03/11 00:58:09;;;;;;;31.60;18.80;;;3.40;99.90;;;;;;5090387;23;20247;-81
2021/03/11 01:00:50;;;;;;;;;;;3.40;99.90;;;;;;4978125;28;20015;-84
2021/03/11 01:03:54;;;;;;;35.05;18.77;;;3.40;99.90;;;;;;4979288;28;19926;-81
2021/03/11 01:06:47;;;;;;;33.50;19.40;;;3.40;99.90;;;;;;4977016;28;20016;-84
2021/03/11 01:09:24;;;;;;;35.92;20.35;;;3.40;99.90;;;;;;4953390;29;20467;-83
2021/03/11 01:12:07;;;;;;;33.78;20.50;;;3.30;99.90;;;;;;4979835;29;20023;-81
2021/03/11 01:14:43;;;;;;;37.22;21.13;;;3.30;99.90;;;;;;5042998;23;20074;-83
2021/03/11 01:20:35;;;;;;;37.88;22.27;;;0.70;99.90;;;;;;5006177;28;20026;-82
2021/03/11 01:23:21;;;;;;;36.97;19.90;;;;;;;;;;5005991;28;20039;-81
2021/03/11 01:25:49;;;;;;;41.50;21.77;;;;;;;;;;4987678;28;20027;-82
2021/03/11 01:28:23;;;;;;;37.75;21.08;;;3.40;99.90;;;;;;5021921;28;20017;-81
2021/03/11 01:31:01;;;;;;;38.83;20.40;;;3.40;99.90;;;;;;5034294;28;20050;-82
2021/03/11 01:33:59;;;;;;;39.10;21.60;;;3.40;99.90;;;;;;5015258;28;20041;-83
2021/03/11 01:36:30;;;;;;;40.47;21.95;;;;;;;;;;5000777;28;20090;-80
2021/03/11 01:39:00;;;;;;;40.63;22.83;;;;;;;;;;5010219;28;20027;-82
2021/03/11 01:41:27;;;;;;;39.03;21.48;;;3.50;99.90;;;;;;5007611;28;20037;-82
2021/03/11 01:43:56;;;;;;;37.42;21.77;;;3.50;99.90;;;;;;4999396;28;20030;-82
2021/03/11 01:46:31;;;;;;;38.40;21.50;;;3.50;99.90;;;;;;4999742;28;20023;-81
2021/03/11 01:49:20;;;;;;;40.67;23.45;;;3.50;99.90;;;;;;4997403;28;20026;-82
2021/03/11 01:51:52;;;;;;;41.42;22.52;;;3.50;99.90;;;;;;5009686;28;20022;-83
2021/03/11 01:54:35;;;;;;;41.70;23.50;;;3.60;99.90;;;;;;5009644;28;20025;-83
2021/03/11 01:57:14;;;;;;;37.63;22.70;;;3.60;99.90;;;;;;5016833;28;20041;-81
2021/03/11 01:59:42;;;;;;;42.97;23.35;;;3.60;99.90;;;;;;5010564;28;20093;-85
2021/03/11 02:02:11;;;;;;;43.95;21.83;;;3.70;99.90;;;;;;5003005;28;20038;-82
2021/03/11 02:04:39;;;;;;;43.58;21.08;;;3.60;99.90;;;;;;5008694;28;20083;-82
2021/03/11 02:07:08;;;;;;;42.22;23.30;;;4.60;99.90;;;;;;4997930;28;20038;-82
2021/03/11 02:09:37;;;;;;;40.92;22.95;;;;;;;;;;4999838;28;20042;-81
2021/03/11 02:12:03;;;;;;;43.88;23.50;;;;;;;;;;5008234;28;20033;-81
2021/03/11 02:14:51;;;;;;;42.58;23.60;;;3.80;99.90;;;;;;4986226;28;20050;-81
2021/03/11 02:17:24;;;;;;;34.25;20.67;;;3.80;99.90;;;;;;5005841;28;20053;-81
2021/03/11 02:20:23;;;;;;;39.05;21.95;;;3.80;99.90;;;;;;5018577;28;20062;-81
2021/03/11 02:23:22;;;;;;;42.63;23.52;;;3.80;99.90;;;;;;5017156;28;20557;-81
2021/03/11 02:26:26;;;;;;;39.75;22.15;;;3.80;99.90;;;;;;4998425;28;20030;-81
2021/03/11 02:29:14;;;;;;;42.55;23.77;;;3.80;99.90;;;;;;5016968;28;20034;-82
2021/03/11 02:31:44;;;;;;;43.58;23.55;;;3.80;99.90;;;;;;5030869;28;20625;-81
2021/03/11 02:34:24;;;;;;;40.83;22.48;;;3.80;99.90;;;;;;5016857;28;20025;-81
2021/03/11 02:37:06;;;;;;;37.80;22.42;;;3.80;99.90;;;;;;5038043;28;20002;-82
2021/03/11 02:40:13;;;;;;;44.42;24.33;;;3.90;99.90;;;;;;5037887;28;20361;-83
2021/03/11 02:48:12;;;;;;;40.85;23.70;;;3.90;99.90;;;;;;5053247;23;20060;-82
2021/03/11 02:50:43;;;;;;;40.25;23.85;;;3.90;99.90;;;;;;4943285;29;20043;-82
2021/03/11 02:53:12;;;;;;;38.72;22.98;;;4.00;99.90;;;;;;4940806;29;20040;-81
2021/03/11 02:56:14;;;;;;;39.58;22.48;;;4.00;99.90;;;;;;4944240;29;20623;-81
2021/03/11 02:58:59;;;;;;;43.45;24.85;;;4.10;99.90;;;;;;4930464;29;20060;-81
2021/03/11 03:01:27;;;;;;;44.47;24.40;;;4.10;99.90;;;;;;4953146;29;20044;-80
2021/03/11 03:03:54;;;;;;;44.92;24.40;;;;;;;;;;4952665;29;20036;-81
2021/03/11 03:06:27;;;;;;;41.72;23.05;;;4.00;99.90;;;;;;4957105;29;20052;-82
2021/03/11 03:08:55;;;;;;;42.80;24.13;;;4.00;99.90;;;;;;4944545;29;20087;-85
2021/03/11 03:11:31;;;;;;;44.72;25.23;;;3.90;99.90;;;;;;4961704;29;20028;-81
2021/03/11 03:13:57;;;;;;;43.78;24.08;;;;;;;;;;4956467;29;20047;-81
2021/03/11 03:16:30;;;;;;;39.92;22.90;;;4.00;99.90;;;;;;4949987;29;20079;-82
2021/03/11 03:19:00;;;;;;;42.53;23.17;;;4.00;99.90;;;;;;4936490;29;20017;-82
2021/03/11 03:22:11;;;;;;;44.05;24.10;;;4.00;99.90;;;;;;4935018;29;20032;-82
2021/03/11 03:24:50;;;;;;;;;;;4.70;99.90;;;;;;4952237;29;20056;-82
2021/03/11 03:27:20;;;;;;;46.22;24.33;;;;;;;;;;4931425;29;19929;-82
2021/03/11 03:29:55;;;;;;;41.70;24.42;;;4.00;99.90;;;;;;4962802;28;20028;-83
2021/03/11 03:32:28;;;;;;;39.80;24.00;;;4.00;99.90;;;;;;4923991;29;20103;-81
2021/03/11 03:35:00;;;;;;;42.30;22.30;;;4.00;99.90;;;;;;4956135;29;20077;-82
2021/03/11 03:38:21;;;;;;;45.60;23.40;;;4.00;99.90;;;;;;4936017;29;20020;-82
2021/03/11 03:41:14;;;;;;;41.83;23.63;;;3.90;99.90;;;;;;4892779;29;20103;-82
2021/03/11 03:44:26;;;;;;;46.38;24.30;;;3.90;99.90;;;;;;4960779;28;20020;-82
2021/03/11 04:26:15;;;;;;;46.72;25.08;;;3.60;99.90;;;;;;5046482;23;20435;-82
2021/03/11 04:28:46;;;;;;;45.92;23.23;;;;;;;;;;4995633;28;20059;-81
2021/03/11 04:31:12;;;;;;;47.03;25.02;;;;;;;;;;4979776;28;20051;-81
2021/03/11 04:33:38;;;;;;;42.83;23.60;;;;;;;;;;4975761;28;20034;-80
2021/03/11 04:36:05;;;;;;;44.00;24.05;;;3.10;99.90;;;;;;4979175;28;20499;-80
2021/03/11 04:38:31;;;;;;;48.13;26.63;;;3.60;99.90;;;;;;4979724;28;20106;-80
2021/03/11 04:40:57;;;;;;;46.38;25.08;;;3.60;99.90;;;;;;4976690;28;20027;-80
2021/03/11 04:43:24;;;;;;;46.20;25.65;;;3.60;99.90;;;;;;4971631;28;20035;-80
2021/03/11 04:45:50;;;;;;;46.05;25.30;;;3.60;99.90;;;;;;4991112;28;20047;-81
2021/03/11 04:48:19;;;;;;;43.80;24.42;;;3.60;99.90;;;;;;4973365;28;20042;-80
2021/03/11 04:50:45;;;;;;;42.92;23.33;;;;;;;;;;4982461;28;20034;-81
2021/03/11 04:53:11;;;;;;;46.33;23.88;;;3.70;99.90;;;;;;4980142;28;20023;-81
2021/03/11 04:55:38;;;;;;;47.00;22.52;;;3.70;99.90;;;;;;4981531;28;20053;-80
2021/03/11 04:58:04;;;;;;;49.88;25.48;;;3.70;99.90;;;;;;4982952;28;20077;-79
2021/03/11 05:00:31;;;;;;;46.78;22.77;;;3.70;99.90;;;;;;4987120;28;20103;-79
2021/03/11 05:02:59;;;;;;;53.10;24.70;;;3.70;99.90;;;;;;4981581;28;20081;-80
2021/03/11 05:05:40;;;;;;;43.13;23.30;;;3.70;99.90;;;;;;4980674;28;20027;-79
2021/03/11 05:08:07;;;;;;;49.42;24.67;;;3.70;99.90;;;;;;4979650;28;20026;-79
2021/03/11 05:10:34;;;;;;;47.22;24.88;;;3.80;99.90;;;;;;4956518;28;20098;-80
2021/03/11 05:13:00;;;;;;;48.50;24.60;;;3.80;99.90;;;;;;4976837;28;20026;-79
2021/03/11 05:15:26;;;;;;;49.25;25.13;;;3.70;99.90;;;;;;4958335;28;20045;-80
2021/03/11 05:17:54;;;;;;;44.50;23.30;;;3.80;99.90;;;;;;4974808;28;20022;-79
2021/03/11 05:20:20;;;;;;;41.35;21.73;;;3.80;99.90;;;;;;4974426;28;20030;-79
2021/03/11 05:22:46;;;;;;;41.40;22.50;;;3.90;99.90;;;;;;4974536;28;20391;-80
2021/03/11 05:25:12;;;;;;;45.95;25.05;;;3.90;99.90;;;;;;4960770;28;20043;-82
2021/03/11 05:27:40;;;;;;;46.33;24.20;;;3.90;99.90;;;;;;4955371;29;20030;-79
2021/03/11 05:30:11;;;;;;;43.92;23.75;;;3.90;99.90;;;;;;4947954;28;20027;-79
2021/03/11 05:32:37;;;;;;;41.47;22.75;;;3.90;99.90;;;;;;4962739;28;20047;-80
2021/03/11 05:35:04;;;;;;;51.38;24.65;;;3.90;99.90;;;;;;4958431;29;20031;-81
2021/03/11 05:37:30;;;;;;;49.15;24.80;;;3.90;99.90;;;;;;4954339;29;20675;-80
2021/03/11 05:39:58;;;;;;;45.90;23.30;;;4.00;99.90;;;;;;4950129;28;20038;-79
2021/03/11 05:42:25;;;;;;;42.58;22.15;;;3.90;99.90;;;;;;4944220;29;20028;-79
2021/03/11 05:44:54;;;;;;;50.08;24.63;;;3.90;99.90;;;;;;4961884;28;20150;-80
2021/03/11 05:47:21;;;;;;;48.75;23.17;;;4.00;99.90;;;;;;4956822;28;20027;-78
2021/03/11 05:49:47;;;;;;;48.35;25.73;;;4.00;99.90;;;;;;4969469;28;20035;-79
2021/03/11 05:52:14;;;;;;;51.33;24.67;;;4.00;99.90;;;;;;4953448;29;20058;-79
2021/03/11 05:54:50;;;;;;;45.95;23.05;;;4.00;99.90;;;;;;4971937;29;20031;-80
2021/03/11 05:57:18;;;;;;;46.40;25.35;;;4.10;99.90;;;;;;4956020;28;20114;-81
2021/03/11 05:59:44;;;;;;;45.63;24.27;;;;;;;;;;4956663;29;20027;-79
2021/03/11 06:02:12;;;;;;;42.60;23.08;;;4.10;99.90;;;;;;4959162;28;20039;-79
2021/03/11 06:04:40;;;;;;;47.92;25.15;;;4.10;99.90;;;;;;4953105;29;20556;-80
2021/03/11 06:07:07;;;;;;;40.72;20.77;;;4.10;99.90;;;;;;4963062;28;20050;-80
2021/03/11 06:09:34;;;;;;;47.40;24.92;;;4.10;99.90;;;;;;4958449;28;20023;-79
2021/03/11 06:12:01;;;;;;;45.40;25.80;;;4.10;99.90;;;;;;4965295;29;20031;-80
2021/03/11 06:14:34;;;;;;;47.30;23.80;;;4.10;99.90;;;;;;4964967;28;20013;-80
2021/03/11 06:17:06;;;;;;;50.22;25.73;;;4.10;99.90;;;;;;4958531;29;20035;-80
2021/03/11 06:19:36;;;;;;;46.00;24.58;;;4.10;99.90;;;;;;4969476;28;20038;-81
2021/03/11 06:22:04;;;;;;;46.13;22.65;;;4.10;99.90;;;;;;4971455;29;20011;-80
2021/03/11 06:24:38;;;;;;;50.00;25.92;;;5.70;99.90;;;;;;4952015;29;20066;-81
2021/03/11 06:27:03;;;;;;;47.53;23.60;;;4.10;99.90;;;;;;4955433;29;20031;-81
2021/03/11 06:29:40;;;;;;;46.58;24.67;;;4.10;99.90;;;;;;4970081;29;20059;-81
2021/03/11 06:32:07;;;;;;;56.80;26.30;;;4.10;99.90;;;;;;4967117;29;20020;-81
2021/03/11 06:34:55;;;;;;;48.55;25.88;;;4.20;99.90;;;;;;4914087;29;20039;-81
2021/03/11 06:37:42;;;;;;;45.40;23.77;;;4.20;99.90;;;;;;4971719;28;20047;-82
2021/03/11 06:40:28;;;;;;;43.42;23.35;;;4.20;99.90;;;;;;4970537;29;20047;-82
2021/03/11 06:43:37;;;;;;;45.85;23.67;;;4.30;99.90;;;;;;4975802;28;20043;-82
2021/03/11 06:46:42;;;;;;;47.75;24.42;;;4.30;99.90;;;;;;4960963;29;20038;-82
2021/03/11 06:49:15;;;;;;;49.63;25.13;;;4.20;99.90;;;;;;4960514;28;20079;-81
2021/03/11 06:51:45;;;;;;;45.35;24.98;;;4.20;99.90;;;;;;4964130;28;20011;-81
2021/03/11 06:54:13;;;;;;;47.58;25.60;;;4.30;99.90;;;;;;4947466;28;20015;-81
2021/03/11 06:57:04;;;;;;;45.42;24.33;;;4.20;99.90;;;;;;4964446;28;20019;-82
2021/03/11 06:59:35;;;;;;;45.63;22.83;;;3.80;99.90;;;;;;4960586;28;20054;-82
2021/03/11 07:02:02;;;;;;;46.63;24.13;;;;;;;;;;4972675;28;20015;-80
2021/03/11 07:04:30;;;;;;;47.03;23.98;;;;;;;;;;4979395;28;20050;-83
2021/03/11 07:06:57;;;;;;;46.70;22.75;;;;;;;;;;4963177;29;20003;-84
2021/03/11 07:09:39;;;;;;;45.35;24.88;;;4.30;99.90;;;;;;4980006;28;20079;-82
2021/03/11 07:12:11;;;;;;;45.78;24.73;;;4.30;99.90;;;;;;4969745;29;20007;-82
2021/03/11 07:14:41;;;;;;;53.63;26.83;;;;;;;;;;4958188;29;20035;-83
2021/03/11 07:17:19;;;;;;;53.17;28.75;;;4.40;99.90;;;;;;4979134;28;20049;-83
2021/03/11 07:20:23;;;;;;;53.45;26.08;;;4.30;99.90;;;;;;4973776;28;20018;-81
2021/03/11 07:23:10;;;;;;;47.35;24.50;;;4.40;99.90;;;;;;5270229;23;20026;-81
2021/03/11 07:25:45;;;;;;;44.03;24.17;;;4.40;99.90;;;;;;4956486;29;20062;-81
2021/03/11 07:28:30;;;;;;;45.88;25.85;;;4.40;99.90;;;;;;4925220;29;20040;-81
2021/03/11 07:31:41;;;;;;;46.55;22.80;;;4.40;99.90;;;;;;4947519;29;20086;-82
2021/03/11 07:34:08;;;;;;;50.57;27.30;;;2.20;99.90;;;;;;4953504;29;20027;-82
2021/03/11 07:36:41;;;;;;;44.08;23.85;;;;;;;;;;4955995;29;20352;-83
2021/03/11 07:39:14;;;;;;;48.33;23.98;;;5.00;99.90;;;;;;4956238;29;20032;-81
2021/03/11 07:41:43;;;;;;;45.78;25.52;;;;;;;;;;4939855;29;20016;-79
2021/03/11 07:44:15;;;;;;;44.45;22.75;;;4.50;99.90;;;;;;4944487;29;20047;-81
2021/03/11 07:46:42;;;;;;;39.17;20.45;;;4.50;99.90;;;;;;4925756;29;20028;-81
2021/03/11 07:49:10;;;;;;;42.42;23.23;;;4.60;99.90;;;;;;4953177;29;20047;-80
2021/03/11 07:51:47;;;;;;;43.58;22.40;;;4.60;99.90;;;;;;4950068;29;20031;-81
2021/03/11 07:54:14;;;;;;;42.95;21.13;;;4.60;99.90;;;;;;4936326;29;20094;-81
2021/03/11 07:56:50;;;;;;;41.60;23.55;;;4.60;99.90;;;;;;4917925;29;20054;-82
2021/03/11 07:59:19;;;;;;;41.20;23.05;;;;;;;;;;4946501;29;20043;-81
2021/03/11 08:01:54;;;;;;;38.22;21.35;;;4.70;99.90;;;;;;4950925;29;20047;-81
2021/03/11 08:04:48;;;;;;;61.40;32.83;;;4.70;99.90;;;;;;5034792;23;20058;-80
2021/03/11 08:07:24;;;;;;;40.17;22.00;;;4.70;99.90;;;;;;4986285;28;20043;-79
2021/03/11 09:09:26;;;;;;;35.75;20.45;;;5.10;99.90;;;;;;5920271;23;21464;-83
2021/03/11 10:42:54;;;;;;;28.83;16.08;;;6.10;99.90;;;;;;5650560;23;20127;-80
2021/03/11 10:45:28;;;;;;;27.52;15.40;;;6.20;99.90;;;;;;4975147;28;20039;-80
2021/03/11 10:48:12;;;;;;;26.77;15.27;;;6.40;99.90;;;;;;4975122;28;20027;-80
2021/03/11 10:50:39;;;;;;;26.50;15.07;;;6.50;99.90;;;;;;5011346;23;20121;-82
2021/03/11 10:53:06;;;;;;;24.75;14.65;;;6.60;99.90;;;;;;5045026;23;20549;-81
2021/03/11 10:55:53;;;;;;;26.23;17.65;;;6.50;99.90;;;;;;4991303;28;20034;-82
2021/03/11 10:58:25;;;;;;;27.98;15.95;;;6.70;99.90;;;;;;5024479;28;20065;-79
2021/03/11 11:01:17;;;;;;;28.08;15.30;;;7.00;99.90;;;;;;5011017;28;20037;-79
2021/03/11 11:03:45;;;;;;;23.83;14.55;;;7.30;99.90;;;;;;5014760;28;20037;-78
2021/03/11 11:06:17;;;;;;;19.15;12.82;;;7.80;99.90;;;;;;5006657;28;20025;-79
2021/03/11 11:08:45;;;;;;;;;;;7.70;99.90;;;;;;5007484;28;20046;-80
2021/03/11 11:11:15;;;;;;;16.02;10.95;;;8.50;99.90;;;;;;5015825;28;19995;-79
2021/03/11 11:13:41;;;;;;;16.95;11.75;;;9.00;99.90;;;;;;5016328;28;20037;-79
2021/03/11 11:16:13;;;;;;;20.90;13.77;;;9.10;99.90;;;;;;5019757;28;20054;-80
2021/03/11 11:18:51;;;;;;;15.82;11.35;;;9.10;99.90;;;;;;5022641;28;20022;-80
2021/03/11 11:21:17;;;;;;;14.07;10.98;;;9.60;99.90;;;;;;5015964;28;20050;-80
2021/03/11 11:23:51;;;;;;;16.77;10.32;;;9.20;99.90;;;;;;5030856;28;20042;-81
2021/03/11 11:26:23;;;;;;;16.40;11.63;;;8.40;99.90;;;;;;4999382;28;20023;-81
2021/03/11 11:29:04;;;;;;;16.45;11.25;;;8.80;99.90;;;;;;5013375;28;20049;-79
2021/03/11 11:31:40;;;;;;;15.70;10.57;;;9.10;99.90;;;;;;4994520;28;20034;-80
2021/03/11 11:34:19;;;;;;;14.98;10.32;;;9.20;99.90;;;;;;5014579;28;20270;-79
2021/03/11 11:36:51;;;;;;;15.45;10.70;;;7.70;99.90;;;;;;5006083;28;20160;-81
2021/03/11 11:39:20;;;;;;;16.63;11.50;;;9.70;99.90;;;;;;4991301;28;20025;-80
2021/03/11 11:41:49;;;;;;;16.50;12.27;;;9.70;99.90;;;;;;5000741;28;20031;-79
2021/03/11 11:44:15;;;;;;;12.80;9.40;;;9.70;99.90;;;;;;5009413;28;20104;-79
2021/03/11 11:46:43;;;;;;;14.23;10.18;;;9.40;99.90;;;;;;5021810;28;20486;-79
2021/03/11 11:49:13;;;;;;;14.68;9.82;;;7.70;99.90;;;;;;5015782;28;20026;-81
2021/03/11 11:51:39;;;;;;;14.30;10.20;;;9.70;99.90;;;;;;5016077;28;20049;-80
2021/03/11 11:54:21;;;;;;;13.55;8.63;;;11.20;99.90;;;;;;5012653;28;20423;-81
2021/03/11 11:56:50;;;;;;;13.88;9.85;;;11.20;99.90;;;;;;5014229;28;20018;-81
2021/03/11 11:59:16;;;;;;;13.63;8.77;;;10.70;99.90;;;;;;5021428;28;20435;-80
2021/03/11 12:01:42;;;;;;;12.25;8.65;;;;;;;;;;4986972;28;20065;-79
2021/03/11 12:04:08;;;;;;;9.80;8.10;;;11.70;99.90;;;;;;5007163;28;20042;-80
2021/03/11 12:06:39;;;;;;;11.02;8.32;;;13.70;99.90;;;;;;5006819;28;20029;-79
2021/03/11 12:09:07;;;;;;;11.82;9.13;;;12.30;99.90;;;;;;4998272;28;20065;-79
2021/03/11 12:12:11;;;;;;;9.13;7.55;;;12.20;99.90;;;;;;5013001;28;20014;-81
2021/03/11 12:15:04;;;;;;;9.15;7.68;;;12.20;99.90;;;;;;5016995;28;20038;-81
2021/03/11 12:18:03;;;;;;;9.02;7.43;;;13.70;99.90;;;;;;5009449;28;20035;-80
2021/03/11 12:20:48;;;;;;;9.93;7.88;;;14.10;99.90;;;;;;4990597;28;20045;-80
2021/03/11 12:23:27;;;;;;;8.98;7.80;;;14.00;99.90;;;;;;5009246;28;20046;-81
2021/03/11 12:26:30;;;;;;;8.98;6.50;;;14.30;99.90;;;;;;5014107;28;20065;-81
2021/03/11 12:33:08;;;;;;;10.07;8.18;;;13.10;99.90;;;;;;4952318;28;20112;-82
2021/03/11 12:43:27;;;;;;;10.05;7.45;;;12.60;99.90;;;;;;5372369;23;20065;-79
2021/03/11 12:46:00;;;;;;;10.88;7.70;;;12.20;99.90;;;;;;4997967;28;20113;-80
2021/03/11 12:48:36;;;;;;;10.27;7.70;;;11.80;99.90;;;;;;5019237;28;20037;-80
2021/03/11 12:51:09;;;;;;;9.93;7.28;;;;;;;;;;5012637;28;20452;-80
2021/03/11 12:54:13;;;;;;;9.98;7.35;;;11.40;99.90;;;;;;4995762;28;20109;-80
2021/03/11 12:56:49;;;;;;;11.13;7.68;;;11.20;99.90;;;;;;4985052;28;20035;-80
2021/03/11 12:59:42;;;;;;;11.43;7.90;;;11.00;99.90;;;;;;5025820;28;20044;-80
2021/03/11 13:02:38;;;;;;;17.42;10.32;;;10.60;99.90;;;;;;5005273;28;20064;-80
2021/03/11 13:05:15;;;;;;;10.55;7.28;;;10.60;99.90;;;;;;5009102;28;20046;-80
2021/03/11 13:07:48;;;;;;;10.18;6.80;;;10.60;99.90;;;;;;5020955;28;20268;-80
2021/03/11 13:10:28;;;;;;;10.48;7.70;;;10.60;99.90;;;;;;5025029;28;20037;-81
2021/03/11 13:12:57;;;;;;;11.15;7.70;;;;;;;;;;5021348;28;20102;-80
2021/03/11 13:15:35;;;;;;;8.77;7.32;;;10.50;99.90;;;;;;5019133;28;20038;-80
2021/03/11 13:18:05;;;;;;;11.90;8.43;;;10.40;99.90;;;;;;5018148;28;20022;-80
2021/03/11 13:20:36;;;;;;;;;;;10.40;99.90;;;;;;5016880;28;20117;-83
2021/03/11 13:23:06;;;;;;;12.15;7.82;;;10.30;99.90;;;;;;5024215;28;19909;-81
2021/03/11 13:26:02;;;;;;;9.57;7.40;;;10.50;99.90;;;;;;5032444;28;20106;-82
2021/03/11 13:28:28;;;;;;;13.23;8.23;;;;;;;;;;5015609;28;20028;-80
2021/03/11 13:31:02;;;;;;;13.90;8.93;;;10.20;99.90;;;;;;5025816;28;20034;-80
2021/03/11 13:33:39;;;;;;;12.35;8.60;;;;;;;;;;5022021;28;20062;-80
2021/03/11 13:36:10;;;;;;;7.70;6.40;;;10.10;99.90;;;;;;5030055;28;20017;-81
2021/03/11 13:38:39;;;;;;;9.63;6.90;;;;;;;;;;5039080;28;20006;-81
2021/03/11 13:41:23;;;;;;;13.30;7.60;;;10.10;99.90;;;;;;5031051;28;20093;-81
2021/03/11 13:44:20;;;;;;;8.68;7.07;;;10.00;99.90;;;;;;5049319;28;20028;-81
2021/03/11 13:46:56;;;;;;;11.95;8.55;;;10.10;99.90;;;;;;4994821;28;20049;-81
2021/03/11 13:49:46;;;;;;;10.77;7.53;;;9.70;99.90;;;;;;5035789;28;20082;-82
2021/03/11 13:52:22;;;;;;;14.73;9.73;;;9.60;99.90;;;;;;5049286;28;20056;-82
2021/03/11 13:54:57;;;;;;;8.57;7.13;;;9.70;99.90;;;;;;4992236;28;20036;-82
2021/03/11 13:57:50;;;;;;;;;;;;;;;;;;;;;
2021/03/11 14:00:25;;;;;;;12.13;9.13;;;10.00;99.90;;;;;;5034699;28;20054;-81
2021/03/11 14:02:54;;;;;;;9.85;7.53;;;;;;;;;;5003843;28;20505;-83
2021/03/11 14:13:13;;;;;;;9.93;6.30;;;10.80;99.90;;;;;;5474134;23;20070;-81
2021/03/11 14:15:51;;;;;;;9.57;7.22;;;10.80;99.90;;;;;;4975373;28;20039;-81
2021/03/11 14:18:38;;;;;;;9.32;7.20;;;10.70;99.90;;;;;;4996838;28;20026;-81
2021/03/11 14:21:26;;;;;;;11.02;6.85;;;10.60;99.90;;;;;;4976692;29;20050;-82
2021/03/11 14:24:03;;;;;;;6.88;5.53;;;10.40;99.90;;;;;;4955579;28;20053;-82
2021/03/11 14:26:47;;;;;;;10.98;7.40;;;10.80;99.90;;;;;;4990432;28;20043;-81
2021/03/11 14:29:31;;;;;;;9.70;6.57;;;10.80;99.90;;;;;;4940185;29;20059;-83
2021/03/11 14:32:17;;;;;;;10.85;7.30;;;12.70;99.90;;;;;;4971292;28;20034;-82
2021/03/11 14:35:05;;;;;;;8.93;6.47;;;11.50;99.90;;;;;;4978775;28;20094;-84
2021/03/11 14:37:43;;;;;;;6.72;5.43;;;11.70;99.90;;;;;;4994015;28;20049;-82
2021/03/11 14:40:16;;;;;;;7.57;5.57;;;11.50;99.90;;;;;;4998009;28;20030;-81
2021/03/11 14:43:16;;;;;;;;;;;;;;;;;;;;;
2021/03/11 14:45:54;;;;;;;6.63;5.30;;;12.10;99.90;;;;;;4992398;28;20043;-82
2021/03/11 14:48:41;;;;;;;6.20;5.55;;;12.30;99.90;;;;;;4967663;28;20035;-82
2021/03/11 14:51:48;;;;;;;8.57;5.60;;;12.30;99.90;;;;;;5083911;23;20050;-82
2021/03/11 14:54:43;;;;;;;7.65;4.18;;;12.30;99.90;;;;;;5001915;28;20050;-81
2021/03/11 15:03:42;;;;;;;6.18;4.40;;;12.50;99.90;;;;;;4949913;29;20071;-82
2021/03/11 15:06:19;;;;;;;5.85;4.72;;;13.00;99.90;;;;;;4943594;29;20047;-83
2021/03/11 15:09:15;;;;;;;6.20;4.43;;;12.30;99.90;;;;;;4960325;29;20022;-82
2021/03/11 15:11:43;;;;;;;5.00;4.05;;;;;;;;;;4942699;28;20024;-82
2021/03/11 15:14:51;;;;;;;6.68;4.70;;;12.10;99.90;;;;;;4943237;29;20416;-81
2021/03/11 15:17:25;;;;;;;5.60;3.95;;;12.10;99.90;;;;;;4945198;29;20043;-81
2021/03/11 15:19:51;;;;;;;;;;;12.10;99.90;;;;;;4964761;28;20085;-82
2021/03/11 15:25:00;;;;;;;4.65;2.67;;;12.30;99.90;;;;;;4936540;26;20052;-80
2021/03/11 15:27:33;;;;;;;3.40;2.50;;;11.80;99.90;;;;;;4955009;29;20063;-81
2021/03/11 15:30:25;;;;;;;6.40;3.00;;;12.00;99.90;;;;;;4968820;29;20027;-81
2021/03/11 15:33:23;;;;;;;;;;;;;;;;;;;;;
2021/03/11 15:36:14;;;;;;;8.20;3.95;;;11.90;99.90;;;;;;4923583;29;20055;-82
2021/03/11 15:38:45;;;;;;;4.82;3.38;;;12.10;99.90;;;;;;4956484;29;20039;-78
2021/03/11 15:41:44;;;;;;;4.72;3.15;;;11.90;99.90;;;;;;4961791;29;20035;-81
2021/03/11 15:44:20;;;;;;;3.10;2.55;;;;;;;;;;4959356;28;20051;-82
2021/03/11 15:46:59;;;;;;;6.60;3.30;;;12.00;99.90;;;;;;4970931;28;20045;-81
2021/03/11 15:50:10;;;;;;;3.30;2.25;;;12.50;99.90;;;;;;4948485;28;20078;-83
2021/03/11 15:56:18;;;;;;;2.97;1.90;;;12.20;99.90;;;;;;5615251;23;20078;-82
2021/03/11 16:15:58;;;;;;;3.80;2.15;;;11.50;99.90;;;;;;5895914;23;20011;-81
2021/03/11 16:18:36;;;;;;;3.42;2.00;;;11.60;99.90;;;;;;5008115;28;20141;-81
2021/03/11 16:21:04;;;;;;;5.13;2.90;;;11.60;99.90;;;;;;5003928;28;20018;-82
2021/03/11 16:24:24;;;;;;;3.58;2.00;;;11.60;99.90;;;;;;4998890;28;20097;-83
2021/03/11 16:26:55;;;;;;;5.68;2.33;;;11.40;99.90;;;;;;5012035;28;20034;-82
2021/03/11 16:29:26;;;;;;;4.75;2.00;;;11.30;99.90;;;;;;4998419;28;20039;-81
2021/03/11 16:31:56;;;;;;;4.57;1.55;;;;;;;;;;4979642;28;20136;-82
2021/03/11 16:37:50;;;;;;;58.08;31.63;;;9.50;99.90;;;;;;5078611;23;20837;-85
2021/03/11 16:40:21;;;;;;;4.13;2.00;;;9.50;99.90;;;;;;5028325;23;20063;-81
2021/03/11 16:42:56;;;;;;;6.10;2.45;;;9.50;99.90;;;;;;5003534;28;20113;-81
2021/03/11 16:45:41;;;;;;;5.03;1.92;;;9.30;99.90;;;;;;5024723;28;20038;-82
2021/03/11 16:48:31;;;;;;;6.10;2.13;;;9.20;99.90;;;;;;5008364;28;20034;-83
2021/03/11 16:51:08;;;;;;;3.45;2.00;;;9.10;99.90;;;;;;5027354;28;20057;-84
2021/03/11 16:54:12;;;;;;;5.40;2.47;;;9.00;99.90;;;;;;5012503;28;20042;-82
2021/03/11 16:57:04;;;;;;;5.18;2.28;;;7.60;99.90;;;;;;5026427;28;20038;-81
2021/03/11 17:05:26;;;;;;;8.18;3.03;;;9.00;99.90;;;;;;4312159;26;20065;-81
2021/03/11 17:07:53;;;;;;;5.10;2.72;;;9.10;99.90;;;;;;5017735;28;20133;-79
2021/03/11 17:10:27;;;;;;;5.68;3.10;;;7.40;99.90;;;;;;5005218;28;20097;-81
2021/03/11 17:13:23;;;;;;;4.50;2.72;;;10.90;99.90;;;;;;4999451;28;20042;-82
2021/03/11 17:15:51;;;;;;;5.78;2.10;;;8.90;99.90;;;;;;5015492;28;20050;-82
2021/03/11 17:18:20;;;;;;;4.60;2.33;;;;;;;;;;4998975;28;20017;-81
2021/03/11 17:21:18;;;;;;;6.13;2.53;;;8.70;99.90;;;;;;4973321;28;20027;-82
2021/03/11 17:23:52;;;;;;;8.68;3.75;;;8.60;99.90;;;;;;4972085;29;20031;-80
2021/03/11 17:26:17;;;;;;;10.10;5.72;;;9.10;99.90;;;;;;4971516;29;20035;-78
2021/03/11 17:28:43;;;;;;;9.45;4.78;;;7.70;99.90;;;;;;4948744;29;20658;-79
2021/03/11 17:31:09;;;;;;;9.15;4.70;;;8.60;99.90;;;;;;4947808;29;20087;-79
2021/03/11 17:33:35;;;;;;;8.57;2.88;;;;;;;;;;4962899;28;20031;-79
2021/03/11 17:36:03;;;;;;;6.57;3.05;;;8.70;99.90;;;;;;4957522;28;20051;-80
2021/03/11 17:38:30;;;;;;;6.70;2.85;;;8.20;99.90;;;;;;4960847;28;20719;-81
2021/03/11 17:40:56;;;;;;;11.00;3.22;;;8.80;99.90;;;;;;4943062;28;20121;-80
2021/03/11 17:43:24;;;;;;;4.72;2.83;;;9.00;99.90;;;;;;4957845;29;20130;-78
2021/03/11 17:45:52;;;;;;;6.47;2.63;;;9.10;99.90;;;;;;4998013;28;21032;-78
2021/03/11 17:48:18;;;;;;;7.85;2.97;;;9.20;99.90;;;;;;5010532;28;20038;-78
2021/03/11 17:50:43;;;;;;;6.60;2.55;;;9.40;99.90;;;;;;5013038;28;20037;-77
2021/03/11 17:53:09;;;;;;;7.97;3.47;;;9.40;99.90;;;;;;5012105;28;20086;-77
2021/03/11 17:55:35;;;;;;;8.02;3.00;;;9.50;99.90;;;;;;5014349;28;20027;-80
2021/03/11 17:58:01;;;;;;;8.18;3.50;;;9.50;99.90;;;;;;5006568;28;20022;-79
2021/03/11 18:00:27;;;;;;;5.40;2.83;;;9.50;99.90;;;;;;5011471;28;20085;-80
2021/03/11 18:02:53;;;;;;;9.65;3.47;;;9.40;99.90;;;;;;5014314;28;20035;-78
2021/03/11 18:05:20;;;;;;;8.48;3.95;;;9.40;99.90;;;;;;5011841;28;20118;-79